Time;durP1;ratioP1;P1;durP2;ratioP2;P2;SDS_P1;SDS_P2;PMS_P1;PMS_P2;Temp;Humidity;BMP_temperature;BMP_pressure;BME280_temperature;BME280_humidity;BME280_pressure;Samples;Min_cycle;Max_cycle;Signal;HPM_P1;HPM_P2
2021/01/29 00:00:29;;;;;;;37.65;19.48;;;3.30;93.60;;;;;;5007339;28;20030;-55
2021/01/29 00:02:56;;;;;;;31.88;16.60;;;3.30;93.40;;;;;;5006599;28;20050;-51
2021/01/29 00:05:25;;;;;;;33.30;17.83;;;3.30;93.50;;;;;;5001741;28;20042;-51
2021/01/29 00:07:50;;;;;;;37.95;18.33;;;3.30;93.50;;;;;;5005376;28;20522;-54
2021/01/29 00:10:17;;;;;;;34.08;18.15;;;3.20;93.60;;;;;;5008075;28;20104;-53
2021/01/29 00:12:42;;;;;;;32.53;17.98;;;3.30;93.60;;;;;;5001626;28;20112;-52
2021/01/29 00:15:14;;;;;;;31.83;16.95;;;3.30;93.40;;;;;;5004806;28;20056;-53
2021/01/29 00:17:40;;;;;;;34.47;17.52;;;3.30;93.40;;;;;;5005411;28;20049;-52
2021/01/29 00:20:11;;;;;;;34.50;17.25;;;3.30;93.20;;;;;;5006595;28;20038;-51
2021/01/29 00:22:36;;;;;;;34.90;18.33;;;3.20;93.50;;;;;;5007719;28;20045;-54
2021/01/29 00:25:09;;;;;;;36.75;18.95;;;3.30;93.60;;;;;;5011588;28;20057;-52
2021/01/29 00:27:35;;;;;;;36.92;18.85;;;3.30;93.60;;;;;;5012510;28;20125;-53
2021/01/29 00:30:02;;;;;;;36.92;18.42;;;3.20;93.70;;;;;;5005482;28;20134;-56
2021/01/29 00:32:27;;;;;;;37.03;17.88;;;3.30;93.70;;;;;;5012154;28;20037;-54
2021/01/29 00:34:53;;;;;;;38.33;19.23;;;3.30;94.00;;;;;;5005691;28;20092;-52
2021/01/29 00:37:19;;;;;;;38.40;19.85;;;3.30;93.70;;;;;;5011376;28;20029;-53
2021/01/29 00:39:44;;;;;;;32.95;17.20;;;3.30;93.80;;;;;;5011593;28;20038;-54
2021/01/29 00:42:10;;;;;;;41.40;18.98;;;3.20;93.90;;;;;;5008061;28;20033;-52
2021/01/29 00:44:35;;;;;;;36.00;19.42;;;3.30;93.90;;;;;;5004151;28;20149;-53
2021/01/29 00:47:01;;;;;;;39.60;19.20;;;3.30;94.00;;;;;;5004232;28;20522;-53
2021/01/29 00:49:27;;;;;;;38.33;18.67;;;3.30;93.70;;;;;;5007542;28;20048;-52
2021/01/29 00:51:52;;;;;;;40.05;19.05;;;3.30;94.00;;;;;;5004472;28;20129;-52
2021/01/29 00:56:47;;;;;;;41.00;19.52;;;3.30;93.80;;;;;;5017099;28;20057;-55
2021/01/29 00:59:12;;;;;;;38.78;18.98;;;3.30;93.90;;;;;;5023673;28;20038;-56
2021/01/29 01:01:38;;;;;;;40.90;19.48;;;3.30;94.10;;;;;;5025652;28;20034;-56
2021/01/29 01:04:04;;;;;;;39.05;19.02;;;3.30;94.10;;;;;;5030773;28;20045;-54
2021/01/29 01:06:29;;;;;;;38.72;18.63;;;3.20;94.20;;;;;;5034128;28;20048;-55
2021/01/29 01:08:55;;;;;;;45.42;20.48;;;3.20;94.20;;;;;;5031826;28;20041;-56
2021/01/29 01:11:21;;;;;;;40.40;19.35;;;3.30;94.30;;;;;;5032083;28;20037;-58
2021/01/29 01:13:46;;;;;;;39.53;18.90;;;3.20;94.30;;;;;;5030697;28;20037;-55
2021/01/29 01:16:12;;;;;;;40.72;20.20;;;3.30;94.30;;;;;;5031922;28;20056;-56
2021/01/29 01:18:37;;;;;;;33.75;15.93;;;3.30;94.10;;;;;;5028862;28;20069;-53
2021/01/29 01:21:04;;;;;;;43.03;20.85;;;3.40;94.20;;;;;;5030775;28;20041;-52
2021/01/29 01:23:30;;;;;;;40.78;19.98;;;3.30;94.00;;;;;;5031280;28;20052;-56
2021/01/29 01:25:55;;;;;;;41.55;20.42;;;3.40;94.00;;;;;;5033005;28;20412;-56
2021/01/29 01:28:21;;;;;;;40.13;19.90;;;3.40;94.00;;;;;;5029819;28;20037;-55
2021/01/29 01:30:48;;;;;;;39.35;18.60;;;3.30;94.20;;;;;;5033667;28;20046;-55
2021/01/29 01:33:13;;;;;;;38.33;18.98;;;3.40;94.20;;;;;;5030701;28;20366;-56
2021/01/29 01:35:39;;;;;;;40.60;20.27;;;3.40;94.20;;;;;;5031800;28;20472;-56
2021/01/29 01:38:05;;;;;;;41.85;19.40;;;3.40;94.40;;;;;;5031975;28;20448;-56
2021/01/29 01:40:39;;;;;;;39.28;19.55;;;3.30;94.50;;;;;;5031898;28;20236;-56
2021/01/29 01:43:05;;;;;;;39.22;18.95;;;3.40;94.00;;;;;;5012573;28;20049;-56
2021/01/29 01:45:31;;;;;;;42.20;21.10;;;3.50;94.00;;;;;;5029653;28;20033;-56
2021/01/29 01:48:07;;;;;;;37.47;19.33;;;3.40;94.00;;;;;;5031152;28;20060;-56
2021/01/29 01:50:35;;;;;;;41.03;20.25;;;3.40;94.20;;;;;;5032393;28;20037;-56
2021/01/29 01:53:04;;;;;;;42.08;19.98;;;3.40;94.20;;;;;;5030044;28;20056;-56
2021/01/29 01:55:37;;;;;;;39.85;20.25;;;3.40;94.30;;;;;;5031673;28;20041;-56
2021/01/29 01:58:04;;;;;;;40.45;20.88;;;3.50;94.20;;;;;;5032759;28;20033;-56
2021/01/29 02:00:31;;;;;;;44.17;21.23;;;3.50;94.30;;;;;;5031075;28;20428;-56
2021/01/29 02:03:15;;;;;;;44.78;21.90;;;3.40;94.10;;;;;;5032459;28;20045;-56
2021/01/29 02:05:41;;;;;;;45.85;21.20;;;3.40;94.20;;;;;;5026294;28;20497;-56
2021/01/29 02:08:12;;;;;;;45.47;21.98;;;3.50;94.20;;;;;;5030678;28;20429;-56
2021/01/29 02:10:38;;;;;;;44.97;22.67;;;3.50;94.10;;;;;;5031379;28;20121;-56
2021/01/29 02:13:05;;;;;;;46.72;23.67;;;3.40;94.20;;;;;;5029773;28;20045;-56
2021/01/29 02:15:34;;;;;;;47.63;22.25;;;3.40;94.30;;;;;;5029810;28;20480;-56
2021/01/29 02:18:22;;;;;;;45.17;21.88;;;3.50;94.40;;;;;;5029806;28;20030;-56
2021/01/29 02:21:12;;;;;;;53.83;24.33;;;3.50;94.20;;;;;;5021234;28;20401;-56
2021/01/29 02:24:25;;;;;;;49.35;22.85;;;3.40;94.20;;;;;;5031223;28;20445;-56
2021/01/29 02:27:27;;;;;;;52.28;22.67;;;3.40;94.50;;;;;;4951968;29;20039;-56
2021/01/29 02:30:15;;;;;;;49.38;22.42;;;3.50;94.30;;;;;;5031014;28;20084;-56
2021/01/29 02:33:07;;;;;;;46.63;22.40;;;3.50;94.50;;;;;;5030041;28;20053;-56
2021/01/29 02:36:03;;;;;;;48.63;22.42;;;3.40;94.50;;;;;;5030483;28;20042;-55
2021/01/29 02:38:40;;;;;;;48.10;22.60;;;3.50;94.40;;;;;;5032140;28;20181;-56
2021/01/29 02:41:32;;;;;;;55.10;24.83;;;3.50;94.40;;;;;;5024651;28;20069;-56
2021/01/29 02:44:11;;;;;;;56.33;23.55;;;3.50;94.50;;;;;;5031032;28;20045;-56
2021/01/29 02:46:59;;;;;;;44.80;21.65;;;3.50;94.20;;;;;;5033046;28;20041;-56
2021/01/29 02:49:38;;;;;;;47.75;23.63;;;3.50;94.50;;;;;;5028328;28;20416;-56
2021/01/29 02:52:41;;;;;;;47.67;23.08;;;3.50;94.50;;;;;;5027069;28;20300;-56
2021/01/29 02:55:25;;;;;;;49.22;22.52;;;3.60;94.50;;;;;;5023039;28;20073;-56
2021/01/29 02:58:12;;;;;;;45.80;22.23;;;3.60;94.50;;;;;;5032565;28;20504;-56
2021/01/29 03:00:52;;;;;;;48.95;23.25;;;3.50;94.60;;;;;;5032612;28;20057;-56
2021/01/29 03:03:43;;;;;;;46.70;21.65;;;3.50;94.60;;;;;;5025223;28;20117;-56
2021/01/29 03:06:35;;;;;;;54.70;23.75;;;3.50;94.60;;;;;;5029857;28;20052;-56
2021/01/29 03:09:15;;;;;;;49.47;22.33;;;3.50;94.70;;;;;;5031307;28;20041;-55
2021/01/29 03:12:01;;;;;;;51.88;23.70;;;3.60;94.70;;;;;;5033575;28;20037;-55
2021/01/29 03:14:40;;;;;;;50.33;22.80;;;3.50;94.80;;;;;;5024711;28;20087;-56
2021/01/29 03:17:29;;;;;;;47.65;21.48;;;3.60;94.70;;;;;;5031810;28;20073;-56
2021/01/29 03:20:23;;;;;;;52.35;21.67;;;3.60;94.60;;;;;;5028082;28;20065;-56
2021/01/29 03:22:56;;;;;;;48.45;20.50;;;3.60;94.50;;;;;;5026995;28;20041;-57
2021/01/29 03:25:30;;;;;;;51.53;21.40;;;3.70;94.50;;;;;;5030474;28;20053;-56
2021/01/29 03:28:04;;;;;;;49.97;19.80;;;3.60;94.60;;;;;;5035341;28;20504;-56
2021/01/29 03:30:33;;;;;;;50.03;20.95;;;3.60;94.90;;;;;;5038664;28;20033;-56
2021/01/29 03:33:01;;;;;;;49.90;21.52;;;3.60;94.60;;;;;;5033570;28;20044;-56
2021/01/29 03:35:37;;;;;;;49.90;22.98;;;3.60;94.80;;;;;;5033769;28;20037;-56
2021/01/29 03:38:16;;;;;;;50.80;20.20;;;3.60;94.90;;;;;;5011141;28;20050;-56
2021/01/29 03:40:46;;;;;;;42.70;19.25;;;3.60;94.90;;;;;;5035825;28;20052;-55
2021/01/29 03:43:51;;;;;;;38.78;17.92;;;3.70;94.80;;;;;;5035785;28;20402;-56
2021/01/29 03:46:27;;;;;;;39.58;19.10;;;3.80;94.60;;;;;;5030917;28;20041;-56
2021/01/29 03:49:12;;;;;;;41.65;18.98;;;3.70;94.60;;;;;;5033843;28;20065;-55
2021/01/29 03:52:02;;;;;;;39.15;18.02;;;3.70;94.70;;;;;;5036215;28;20056;-58
2021/01/29 03:54:46;;;;;;;42.58;18.52;;;3.70;94.90;;;;;;5036023;28;20493;-57
2021/01/29 03:57:26;;;;;;;37.03;19.48;;;3.60;94.80;;;;;;5033936;28;20095;-56
2021/01/29 04:00:09;;;;;;;37.08;17.85;;;3.60;94.90;;;;;;5031711;28;20048;-56
2021/01/29 04:02:50;;;;;;;37.85;18.55;;;3.60;95.30;;;;;;5015408;28;20108;-56
2021/01/29 04:05:33;;;;;;;37.20;16.75;;;3.70;95.00;;;;;;5032687;28;20069;-58
2021/01/29 04:08:12;;;;;;;37.60;18.15;;;3.70;94.80;;;;;;5037422;28;20045;-56
2021/01/29 04:10:43;;;;;;;37.05;16.55;;;3.80;94.70;;;;;;5033225;28;20460;-56
2021/01/29 04:13:40;;;;;;;32.77;16.47;;;3.80;94.60;;;;;;5032306;28;20084;-56
2021/01/29 04:16:10;;;;;;;29.55;15.55;;;3.80;94.50;;;;;;5032763;28;20068;-56
2021/01/29 04:18:45;;;;;;;32.30;16.38;;;3.80;94.40;;;;;;5033449;28;20029;-57
2021/01/29 04:21:25;;;;;;;31.13;15.90;;;3.70;94.40;;;;;;5032520;28;20244;-56
2021/01/29 04:24:04;;;;;;;33.83;15.55;;;3.70;94.80;;;;;;5032165;28;20493;-56
2021/01/29 04:26:38;;;;;;;29.20;16.13;;;3.70;94.90;;;;;;5033116;28;20554;-57
2021/01/29 04:29:12;;;;;;;33.47;15.88;;;3.70;94.90;;;;;;5032545;28;20041;-57
2021/01/29 04:31:39;;;;;;;31.98;15.80;;;3.70;94.90;;;;;;5026860;28;20044;-56
2021/01/29 04:34:12;;;;;;;31.25;15.48;;;3.80;94.70;;;;;;5033019;28;20049;-57
2021/01/29 04:36:41;;;;;;;29.38;15.82;;;3.80;94.80;;;;;;5031745;28;20434;-57
2021/01/29 04:39:27;;;;;;;30.17;15.70;;;3.80;94.80;;;;;;5032722;28;20050;-57
2021/01/29 04:42:19;;;;;;;34.00;15.93;;;3.80;94.70;;;;;;5026799;28;20045;-56
2021/01/29 04:45:24;;;;;;;31.25;15.45;;;3.80;94.50;;;;;;5032076;28;20041;-56
2021/01/29 04:48:05;;;;;;;30.60;14.95;;;3.80;94.60;;;;;;5031117;28;20033;-56
2021/01/29 04:50:50;;;;;;;31.40;15.73;;;3.80;94.70;;;;;;5032225;28;20128;-56
2021/01/29 04:54:02;;;;;;;29.67;15.13;;;3.80;94.60;;;;;;5031392;28;20068;-56
2021/01/29 04:56:44;;;;;;;31.13;15.60;;;3.80;94.70;;;;;;4951350;28;20515;-56
2021/01/29 04:59:30;;;;;;;32.15;15.35;;;3.80;94.60;;;;;;4952304;29;20063;-57
2021/01/29 05:02:15;;;;;;;29.45;14.90;;;3.80;94.70;;;;;;5013910;28;20037;-56
2021/01/29 05:04:43;;;;;;;28.05;14.73;;;3.90;94.60;;;;;;5032845;28;20119;-56
2021/01/29 05:07:40;;;;;;;23.05;13.10;;;3.90;94.40;;;;;;5031956;28;20045;-56
2021/01/29 05:10:30;;;;;;;29.27;15.30;;;3.90;94.50;;;;;;5031943;28;20071;-57
2021/01/29 05:13:17;;;;;;;27.85;15.55;;;3.90;94.30;;;;;;5031389;28;20030;-55
2021/01/29 05:16:12;;;;;;;28.15;15.43;;;3.90;94.50;;;;;;5031055;28;20037;-57
2021/01/29 05:19:03;;;;;;;30.13;14.77;;;3.80;94.60;;;;;;5001459;28;20184;-57
2021/01/29 05:21:40;;;;;;;26.45;14.77;;;3.80;94.70;;;;;;5024154;28;20048;-56
2021/01/29 05:24:50;;;;;;;26.92;14.32;;;3.90;94.60;;;;;;5028471;28;20073;-56
2021/01/29 05:27:40;;;;;;;27.10;14.40;;;3.90;94.60;;;;;;4956192;28;20074;-56
2021/01/29 05:30:40;;;;;;;29.80;14.93;;;3.90;94.70;;;;;;4957238;28;20050;-57
2021/01/29 05:33:29;;;;;;;25.00;13.60;;;3.80;94.60;;;;;;5017987;28;20046;-57
2021/01/29 05:36:08;;;;;;;31.10;15.23;;;3.90;94.70;;;;;;5030608;28;20045;-56
2021/01/29 05:38:56;;;;;;;28.60;14.95;;;3.90;94.70;;;;;;5033064;28;20498;-57
2021/01/29 05:41:38;;;;;;;24.88;13.10;;;3.90;94.60;;;;;;5031029;28;20056;-56
2021/01/29 05:44:19;;;;;;;23.63;13.45;;;4.00;94.60;;;;;;5030711;28;20580;-57
2021/01/29 05:47:21;;;;;;;28.00;13.48;;;3.90;94.50;;;;;;5031230;28;20033;-56
2021/01/29 05:50:09;;;;;;;26.92;14.10;;;3.90;94.70;;;;;;5027776;28;20049;-57
2021/01/29 05:52:47;;;;;;;23.02;12.93;;;3.90;94.70;;;;;;5030202;28;20118;-57
2021/01/29 05:55:13;;;;;;;26.90;14.02;;;3.80;95.00;;;;;;5012699;28;20053;-57
2021/01/29 05:57:50;;;;;;;23.70;13.20;;;3.90;94.80;;;;;;5030805;28;20402;-57
2021/01/29 06:00:48;;;;;;;29.05;14.05;;;3.90;94.90;;;;;;5030567;28;20052;-56
2021/01/29 06:03:49;;;;;;;24.40;13.57;;;4.00;94.80;;;;;;5024381;28;20056;-56
2021/01/29 06:06:42;;;;;;;26.98;14.45;;;3.90;94.60;;;;;;5025350;28;20052;-58
2021/01/29 06:09:20;;;;;;;;;;;3.90;94.90;;;;;;5023506;28;20065;-55
2021/01/29 06:12:01;;;;;;;25.77;13.38;;;4.00;94.80;;;;;;5026458;28;20013;-57
2021/01/29 06:14:52;;;;;;;25.70;14.05;;;4.10;94.60;;;;;;5025276;28;20098;-56
2021/01/29 06:17:42;;;;;;;26.50;13.57;;;4.00;94.60;;;;;;5030618;28;20041;-56
2021/01/29 06:20:08;;;;;;;25.33;13.98;;;4.00;95.00;;;;;;5029489;28;20394;-55
2021/01/29 06:22:53;;;;;;;26.92;13.95;;;4.00;94.70;;;;;;5029581;28;20037;-56
2021/01/29 06:25:24;;;;;;;27.92;13.43;;;4.00;94.70;;;;;;5030658;28;20038;-55
2021/01/29 06:28:14;;;;;;;25.83;12.73;;;4.00;94.70;;;;;;5028921;28;20115;-55
2021/01/29 06:31:15;;;;;;;28.90;13.60;;;4.00;94.90;;;;;;5030483;28;20092;-57
2021/01/29 06:34:31;;;;;;;27.23;13.43;;;3.90;94.80;;;;;;5024865;28;20544;-53
2021/01/29 06:37:18;;;;;;;24.15;12.20;;;3.90;94.80;;;;;;4990322;28;20497;-55
2021/01/29 06:40:14;;;;;;;26.70;13.65;;;4.00;95.00;;;;;;5026312;28;20041;-57
2021/01/29 06:42:57;;;;;;;26.33;13.65;;;3.90;94.90;;;;;;5025878;28;20037;-55
2021/01/29 06:45:51;;;;;;;26.15;12.70;;;4.00;94.80;;;;;;5030370;28;20071;-55
2021/01/29 06:48:43;;;;;;;21.92;12.35;;;3.90;94.90;;;;;;5025605;28;20063;-52
2021/01/29 06:51:27;;;;;;;27.58;13.15;;;4.00;94.80;;;;;;5030061;28;20108;-52
2021/01/29 06:54:10;;;;;;;22.48;11.82;;;4.00;94.70;;;;;;5028915;28;20038;-55
2021/01/29 06:57:07;;;;;;;19.60;11.15;;;4.00;94.70;;;;;;5029726;28;20493;-54
2021/01/29 06:59:58;;;;;;;20.63;11.75;;;4.10;94.50;;;;;;5023991;28;20413;-52
2021/01/29 07:02:45;;;;;;;19.65;11.00;;;4.00;94.80;;;;;;5027976;28;20516;-56
2021/01/29 07:05:33;;;;;;;22.10;11.30;;;4.10;94.70;;;;;;5028475;28;20041;-55
2021/01/29 07:08:26;;;;;;;23.27;11.38;;;4.10;94.80;;;;;;5025205;28;20033;-56
2021/01/29 07:11:04;;;;;;;;;;;4.10;94.70;;;;;;5025390;28;20045;-55
2021/01/29 07:13:55;;;;;;;23.63;11.45;;;4.00;94.90;;;;;;5028015;28;19924;-56
2021/01/29 07:16:37;;;;;;;21.77;11.50;;;3.90;95.00;;;;;;5028256;28;20049;-57
2021/01/29 07:19:29;;;;;;;21.60;11.20;;;4.00;95.10;;;;;;5027855;28;20094;-56
2021/01/29 07:22:32;;;;;;;24.13;11.33;;;4.10;94.80;;;;;;5028652;28;20060;-56
2021/01/29 07:24:58;;;;;;;;;;;4.10;94.80;;;;;;5029000;28;20042;-56
2021/01/29 07:27:52;;;;;;;21.65;10.10;;;4.10;95.00;;;;;;5028471;28;20364;-57
2021/01/29 07:30:36;;;;;;;18.85;10.30;;;4.10;95.00;;;;;;5027893;28;20045;-57
2021/01/29 07:33:16;;;;;;;18.95;10.07;;;4.20;94.90;;;;;;5025780;28;20505;-57
2021/01/29 07:35:54;;;;;;;18.27;10.27;;;4.10;95.00;;;;;;5026084;28;20061;-56
2021/01/29 07:38:58;;;;;;;18.60;10.35;;;4.20;94.90;;;;;;5028176;28;20049;-58
2021/01/29 07:41:52;;;;;;;22.85;11.10;;;4.10;95.00;;;;;;5029026;28;20044;-58
2021/01/29 07:44:35;;;;;;;18.50;10.27;;;4.20;94.90;;;;;;5028576;28;20041;-57
2021/01/29 07:47:16;;;;;;;20.13;10.82;;;4.20;94.70;;;;;;5029231;28;20376;-56
2021/01/29 07:50:27;;;;;;;19.02;10.27;;;4.10;94.90;;;;;;5027458;28;20503;-57
2021/01/29 07:53:18;;;;;;;17.30;9.45;;;4.20;95.10;;;;;;4996065;28;20060;-57
2021/01/29 07:55:58;;;;;;;18.58;10.38;;;4.30;94.90;;;;;;5026043;28;20040;-58
2021/01/29 07:58:53;;;;;;;18.63;9.60;;;4.30;95.00;;;;;;5029203;28;20044;-55
2021/01/29 08:02:17;;;;;;;19.90;11.07;;;4.20;95.10;;;;;;5028089;28;20029;-56
2021/01/29 08:05:10;;;;;;;18.77;10.32;;;4.30;95.10;;;;;;4947367;29;20068;-54
2021/01/29 08:07:37;;;;;;;;;;;4.30;95.00;;;;;;5028277;28;20461;-55
2021/01/29 08:10:12;;;;;;;17.50;9.88;;;4.20;95.00;;;;;;5024686;28;19927;-58
2021/01/29 08:12:50;;;;;;;19.38;10.02;;;4.20;95.10;;;;;;5025195;28;20041;-57
2021/01/29 08:15:29;;;;;;;21.58;10.10;;;4.30;95.10;;;;;;5029504;28;20112;-57
2021/01/29 08:18:09;;;;;;;16.83;9.65;;;4.30;95.00;;;;;;5032723;28;20042;-58
2021/01/29 08:20:57;;;;;;;16.60;9.27;;;4.30;95.00;;;;;;5030999;28;20112;-57
2021/01/29 08:23:47;;;;;;;16.10;8.57;;;4.30;95.10;;;;;;5031680;28;20049;-59
2021/01/29 08:26:27;;;;;;;15.75;8.95;;;4.40;95.00;;;;;;5027004;28;20049;-59
2021/01/29 08:29:30;;;;;;;16.10;8.27;;;4.30;95.10;;;;;;5028123;28;20453;-60
2021/01/29 08:32:23;;;;;;;16.92;8.95;;;4.30;95.30;;;;;;5029368;28;20041;-60
2021/01/29 08:35:27;;;;;;;13.30;8.52;;;4.30;95.30;;;;;;5032227;28;20057;-58
2021/01/29 08:38:07;;;;;;;16.05;8.82;;;4.30;95.30;;;;;;5029011;28;20465;-57
2021/01/29 08:40:42;;;;;;;16.38;9.15;;;4.40;95.30;;;;;;5031499;28;20497;-58
2021/01/29 08:43:52;;;;;;;19.02;9.15;;;4.40;95.30;;;;;;5028153;28;20466;-58
2021/01/29 08:46:44;;;;;;;13.18;7.70;;;4.40;95.30;;;;;;5029332;28;20038;-57
2021/01/29 08:49:12;;;;;;;16.42;8.45;;;4.40;95.40;;;;;;4981401;28;20073;-58
2021/01/29 08:52:00;;;;;;;11.77;7.40;;;4.40;95.50;;;;;;5032108;28;20041;-58
2021/01/29 08:54:45;;;;;;;13.13;7.88;;;4.50;95.50;;;;;;5032033;28;20509;-57
2021/01/29 08:57:39;;;;;;;14.15;7.93;;;4.50;95.40;;;;;;5031818;28;20547;-58
2021/01/29 09:00:19;;;;;;;15.60;8.30;;;4.50;95.60;;;;;;5028321;28;20114;-57
2021/01/29 09:03:02;;;;;;;15.80;8.73;;;4.50;95.50;;;;;;5032206;28;20407;-58
2021/01/29 09:05:31;;;;;;;12.68;8.13;;;4.50;95.50;;;;;;4996465;28;20045;-58
2021/01/29 09:08:03;;;;;;;17.58;12.57;;;4.50;95.70;;;;;;5032259;28;20132;-58
2021/01/29 09:10:51;;;;;;;18.23;11.23;;;4.60;95.50;;;;;;5031418;28;20038;-58
2021/01/29 09:13:20;;;;;;;18.42;9.30;;;4.60;95.60;;;;;;5029398;28;20045;-57
2021/01/29 09:16:03;;;;;;;13.77;7.95;;;4.60;95.60;;;;;;5031630;28;20044;-58
2021/01/29 09:18:46;;;;;;;17.70;9.02;;;4.70;95.60;;;;;;5030883;28;20445;-58
2021/01/29 09:21:24;;;;;;;15.60;8.93;;;4.70;95.50;;;;;;5024131;28;20045;-59
2021/01/29 09:24:17;;;;;;;18.23;9.48;;;4.70;95.60;;;;;;5026809;28;20054;-57
2021/01/29 09:27:04;;;;;;;13.23;7.75;;;4.70;95.60;;;;;;5026365;28;20049;-58
2021/01/29 09:29:38;;;;;;;18.17;10.68;;;4.70;95.50;;;;;;5030079;28;20086;-58
2021/01/29 09:32:08;;;;;;;19.95;11.57;;;4.70;95.50;;;;;;5030078;28;20547;-59
2021/01/29 09:34:43;;;;;;;21.70;11.68;;;4.80;95.60;;;;;;5029689;28;20060;-58
2021/01/29 09:37:14;;;;;;;20.85;10.93;;;4.80;95.60;;;;;;5032184;28;20128;-58
2021/01/29 09:39:59;;;;;;;25.48;13.52;;;4.80;95.60;;;;;;5014118;28;20095;-58
2021/01/29 09:42:47;;;;;;;27.33;14.98;;;4.90;95.60;;;;;;5032634;28;20053;-58
2021/01/29 09:45:19;;;;;;;29.42;15.02;;;4.90;95.60;;;;;;5028221;28;20045;-58
2021/01/29 09:47:47;;;;;;;;;;;4.90;95.60;;;;;;5032178;28;20136;-59
2021/01/29 09:50:23;;;;;;;19.30;10.10;;;4.90;95.60;;;;;;5030589;28;20405;-58
2021/01/29 09:53:09;;;;;;;16.35;9.27;;;5.00;95.60;;;;;;5029363;28;20124;-57
2021/01/29 09:55:48;;;;;;;13.52;8.05;;;5.00;95.70;;;;;;5030261;28;20042;-57
2021/01/29 09:58:20;;;;;;;14.77;7.95;;;5.10;95.70;;;;;;5030135;28;20045;-59
2021/01/29 10:01:05;;;;;;;13.80;8.18;;;5.10;95.70;;;;;;5029063;28;20544;-58
2021/01/29 10:03:35;;;;;;;14.30;8.38;;;5.20;95.90;;;;;;5027989;28;20053;-58
2021/01/29 10:06:04;;;;;;;18.90;8.80;;;5.30;96.00;;;;;;5022429;28;20052;-56
2021/01/29 10:08:40;;;;;;;22.85;8.90;;;5.50;96.20;;;;;;5030575;28;20495;-58
2021/01/29 10:11:30;;;;;;;16.92;8.07;;;5.60;96.40;;;;;;5030855;28;20045;-58
2021/01/29 10:14:20;;;;;;;21.98;8.50;;;5.70;96.60;;;;;;5026497;28;20081;-58
2021/01/29 10:17:03;;;;;;;25.27;9.25;;;5.90;96.70;;;;;;5024069;28;20108;-59
2021/01/29 10:19:46;;;;;;;31.27;9.70;;;6.10;97.00;;;;;;5028826;28;20060;-59
2021/01/29 10:22:11;;;;;;;;;;;6.30;96.80;;;;;;5029301;28;20045;-56
2021/01/29 10:25:21;;;;;;;44.22;8.80;;;6.50;96.90;;;;;;5010343;28;20633;-59
2021/01/29 10:28:05;;;;;;;36.97;7.43;;;6.70;97.50;;;;;;4968287;28;20043;-59
2021/01/29 10:30:43;;;;;;;44.55;8.18;;;7.00;97.50;;;;;;5027441;28;20049;-58
2021/01/29 10:33:34;;;;;;;36.53;7.32;;;7.20;97.30;;;;;;5028959;28;20123;-59
2021/01/29 10:36:05;;;;;;;27.50;6.28;;;7.30;97.10;;;;;;5027804;28;20336;-58
2021/01/29 10:38:52;;;;;;;30.98;6.97;;;7.50;97.00;;;;;;5025806;28;20124;-59
2021/01/29 10:41:39;;;;;;;43.78;7.40;;;7.60;96.80;;;;;;5028988;28;20029;-59
2021/01/29 10:44:21;;;;;;;27.40;7.00;;;7.70;96.50;;;;;;5026580;28;20123;-59
2021/01/29 10:47:17;;;;;;;37.25;7.45;;;7.90;96.30;;;;;;5028954;28;20053;-56
2021/01/29 10:49:57;;;;;;;39.17;6.07;;;7.90;96.10;;;;;;5025723;28;20064;-58
2021/01/29 10:53:01;;;;;;;26.63;7.22;;;8.00;96.00;;;;;;5028108;28;20073;-58
2021/01/29 10:55:31;;;;;;;38.45;7.60;;;8.00;95.70;;;;;;5027847;28;20073;-59
2021/01/29 10:58:23;;;;;;;25.52;5.97;;;8.10;95.50;;;;;;5027625;28;20485;-59
2021/01/29 11:00:58;;;;;;;34.67;6.75;;;8.10;95.40;;;;;;5027277;28;20033;-58
2021/01/29 11:03:55;;;;;;;33.40;7.45;;;8.10;95.30;;;;;;5027909;28;20071;-59
2021/01/29 11:06:26;;;;;;;29.15;5.82;;;8.10;95.20;;;;;;5026943;28;20267;-58
2021/01/29 11:08:58;;;;;;;32.67;5.57;;;8.20;95.00;;;;;;5026712;28;20563;-59
2021/01/29 11:11:33;;;;;;;29.93;5.07;;;8.30;94.70;;;;;;5030009;28;20042;-59
2021/01/29 11:14:28;;;;;;;31.83;5.93;;;8.30;94.50;;;;;;5028664;28;20037;-57
2021/01/29 11:17:05;;;;;;;27.98;5.50;;;8.30;94.50;;;;;;5029436;28;20041;-59
2021/01/29 11:19:36;;;;;;;32.97;5.35;;;8.30;94.30;;;;;;5029907;28;20045;-58
2021/01/29 11:22:32;;;;;;;31.20;5.20;;;8.30;94.20;;;;;;5028912;28;20041;-59
2021/01/29 11:25:20;;;;;;;26.15;4.32;;;8.30;94.10;;;;;;5029701;28;20041;-59
2021/01/29 11:28:13;;;;;;;30.65;5.20;;;8.30;94.00;;;;;;5029775;28;20029;-59
2021/01/29 11:31:13;;;;;;;28.65;4.60;;;8.30;93.90;;;;;;5028906;28;20041;-59
2021/01/29 11:33:43;;;;;;;32.72;5.32;;;8.30;94.00;;;;;;5023870;28;20132;-59
2021/01/29 11:36:29;;;;;;;27.40;4.90;;;8.30;94.00;;;;;;5029217;28;20042;-58
2021/01/29 11:39:09;;;;;;;38.45;5.43;;;8.30;93.90;;;;;;5026076;28;20037;-58
2021/01/29 11:42:01;;;;;;;34.63;5.15;;;8.20;93.90;;;;;;5029498;28;20037;-58
2021/01/29 11:45:02;;;;;;;31.73;5.90;;;8.30;93.80;;;;;;5026538;28;20172;-58
2021/01/29 11:47:38;;;;;;;34.58;6.45;;;8.30;93.80;;;;;;5028413;28;20045;-59
2021/01/29 11:50:11;;;;;;;35.88;5.65;;;8.30;93.40;;;;;;5032827;28;20045;-59
2021/01/29 11:52:46;;;;;;;30.80;5.70;;;8.30;93.60;;;;;;5029597;28;20394;-59
2021/01/29 11:55:20;;;;;;;34.05;5.65;;;8.30;93.50;;;;;;5033002;28;20140;-58
2021/01/29 11:58:01;;;;;;;33.78;4.88;;;8.40;93.20;;;;;;5031490;28;20033;-59
2021/01/29 12:00:48;;;;;;;30.55;4.80;;;8.40;93.30;;;;;;5033868;28;20492;-59
2021/01/29 12:03:32;;;;;;;40.42;5.45;;;8.30;93.50;;;;;;5032130;28;20474;-58
2021/01/29 12:06:12;;;;;;;32.47;5.45;;;8.10;93.40;;;;;;5027169;28;20041;-59
2021/01/29 12:08:45;;;;;;;39.33;5.20;;;8.40;93.30;;;;;;5032620;28;20041;-59
2021/01/29 12:11:21;;;;;;;31.35;4.93;;;8.30;93.30;;;;;;5033331;28;20539;-59
2021/01/29 12:13:56;;;;;;;31.95;4.80;;;8.30;93.40;;;;;;5029390;28;20038;-59
2021/01/29 12:16:26;;;;;;;39.08;6.30;;;8.30;93.40;;;;;;5032561;28;20045;-58
2021/01/29 12:18:54;;;;;;;36.05;4.72;;;8.30;93.40;;;;;;5026197;28;20041;-59
2021/01/29 12:21:35;;;;;;;38.55;5.35;;;8.30;93.40;;;;;;5033840;28;20041;-59
2021/01/29 12:24:14;;;;;;;38.13;5.13;;;8.30;93.40;;;;;;5034498;28;20045;-58
2021/01/29 12:26:54;;;;;;;36.92;5.95;;;8.40;93.20;;;;;;5032292;28;20045;-59
2021/01/29 12:29:33;;;;;;;29.70;5.95;;;8.40;93.30;;;;;;5032887;28;20041;-58
2021/01/29 12:32:24;;;;;;;34.95;6.63;;;8.30;93.30;;;;;;5032778;28;20120;-59
2021/01/29 12:35:01;;;;;;;27.48;5.00;;;8.30;93.30;;;;;;5028562;28;20069;-58
2021/01/29 12:37:33;;;;;;;29.20;4.78;;;8.40;93.40;;;;;;5029844;28;20033;-59
2021/01/29 12:40:03;;;;;;;30.60;4.95;;;8.40;93.40;;;;;;5031893;28;20072;-59
2021/01/29 12:42:38;;;;;;;34.47;4.65;;;8.40;93.50;;;;;;5030828;28;20041;-58
2021/01/29 12:45:33;;;;;;;39.78;5.10;;;8.40;93.50;;;;;;5031925;28;20061;-58
2021/01/29 12:48:15;;;;;;;34.58;4.90;;;8.40;93.60;;;;;;5034987;28;20040;-56
2021/01/29 12:51:02;;;;;;;32.22;5.15;;;8.40;93.60;;;;;;5032125;28;20138;-58
2021/01/29 12:53:40;;;;;;;28.90;5.40;;;8.30;93.70;;;;;;5028129;28;20048;-55
2021/01/29 12:56:18;;;;;;;37.70;5.60;;;8.40;93.70;;;;;;4999538;28;20079;-55
2021/01/29 12:58:54;;;;;;;30.50;5.57;;;8.30;93.70;;;;;;5036316;28;20408;-55
2021/01/29 13:01:35;;;;;;;25.25;5.40;;;8.30;93.80;;;;;;5032525;28;20133;-55
2021/01/29 13:04:17;;;;;;;40.05;6.18;;;8.40;93.70;;;;;;5030328;28;20554;-54
2021/01/29 13:07:15;;;;;;;39.67;4.87;;;8.40;93.90;;;;;;5030546;28;20080;-53
2021/01/29 13:10:08;;;;;;;30.58;5.13;;;8.40;93.80;;;;;;5032705;28;20281;-57
2021/01/29 13:12:48;;;;;;;29.15;4.85;;;8.40;93.60;;;;;;5028848;28;20043;-57
2021/01/29 13:15:36;;;;;;;33.00;5.68;;;8.50;93.50;;;;;;5026098;28;20390;-55
2021/01/29 13:18:14;;;;;;;31.75;4.82;;;8.50;93.60;;;;;;5031806;28;20121;-57
2021/01/29 13:20:47;;;;;;;27.40;4.70;;;8.50;93.90;;;;;;5031337;28;20069;-56
2021/01/29 13:23:36;;;;;;;33.55;5.45;;;8.40;94.10;;;;;;5031165;28;20037;-55
2021/01/29 13:26:10;;;;;;;28.60;5.25;;;8.40;94.40;;;;;;4998299;28;20482;-54
2021/01/29 13:28:55;;;;;;;28.23;5.35;;;8.40;94.50;;;;;;5031752;28;20033;-54
2021/01/29 13:31:41;;;;;;;26.55;5.35;;;8.30;94.60;;;;;;5029840;28;20041;-55
2021/01/29 13:34:20;;;;;;;33.15;5.13;;;8.30;94.60;;;;;;5031584;28;20125;-55
2021/01/29 13:37:26;;;;;;;40.03;5.25;;;8.30;94.80;;;;;;5031174;28;20087;-54
2021/01/29 13:40:12;;;;;;;35.85;5.97;;;8.30;94.70;;;;;;5031760;28;20340;-58
2021/01/29 13:42:41;;;;;;;30.02;5.88;;;8.30;94.60;;;;;;5030122;28;20033;-58
2021/01/29 13:45:13;;;;;;;26.77;5.43;;;8.30;94.60;;;;;;5033992;28;20095;-59
2021/01/29 13:47:44;;;;;;;33.63;5.40;;;8.30;94.40;;;;;;5031238;28;20053;-59
2021/01/29 13:50:23;;;;;;;35.13;5.60;;;8.30;94.40;;;;;;5031989;28;20041;-59
2021/01/29 13:52:57;;;;;;;40.47;6.50;;;8.30;94.30;;;;;;5025980;28;20128;-59
2021/01/29 13:55:33;;;;;;;34.70;5.25;;;8.40;94.30;;;;;;5031782;28;20092;-57